Port Austin, Michigan
Current Conditions -  °F | °C
As of 1:15 PM on Friday 19 Dec 2014 (Local Time) from KBAX Reporting Station
Broken Clouds Broken Clouds  
Wind Chill: 22°   Ceiling: 2100
Heat Index: 28°   Visibility: 10mi
Dew Point: 21°   Wind: 6mph
Humidity: 74%   Direction: 300°WNW
Pressure: 30.25"   Gusts: NA
Location:  44.05°N, 82.99°W
Report Text: KBAX 191815Z AUTO 30005KT 10SM BKN021 BKN027 M02/M06 A3025 RMK AO2 T10201060
Loading
Personal Weather Stations






























Interactive Weather Map New forecast layout! Learn more

10-Day Weather Forecast

Advertisements
Track Severe Weather on mobile